sensor_id;sensor_type;location;lat;lon;timestamp;pressure;altitude;pressure_sealevel;temperature;humidity
35151;BME280;55720;51.972;4.624;2022-09-25T00:01:45;102347.69;;;7.85;100.00
35151;BME280;55720;51.972;4.624;2022-09-25T00:04:10;102348.81;;;7.84;100.00
35151;BME280;55720;51.972;4.624;2022-09-25T00:06:36;102363.03;;;7.86;100.00
35151;BME280;55720;51.972;4.624;2022-09-25T00:09:01;102375.59;;;7.87;100.00
35151;BME280;55720;51.972;4.624;2022-09-25T00:11:30;102377.50;;;7.81;100.00
35151;BME280;55720;51.972;4.624;2022-09-25T00:13:57;102390.66;;;7.84;100.00
35151;BME280;55720;51.972;4.624;2022-09-25T00:16:24;102393.13;;;7.81;100.00
35151;BME280;55720;51.972;4.624;2022-09-25T00:18:49;102393.13;;;7.76;100.00
35151;BME280;55720;51.972;4.624;2022-09-25T00:21:33;102403.50;;;7.79;100.00
35151;BME280;55720;51.972;4.624;2022-09-25T00:24:00;102411.16;;;7.82;100.00
35151;BME280;55720;51.972;4.624;2022-09-25T00:26:29;102416.09;;;7.80;100.00
35151;BME280;55720;51.972;4.624;2022-09-25T00:28:55;102417.19;;;7.74;100.00
35151;BME280;55720;51.972;4.624;2022-09-25T00:31:21;102424.84;;;7.72;100.00
35151;BME280;55720;51.972;4.624;2022-09-25T00:33:51;102427.28;;;7.78;100.00
35151;BME280;55720;51.972;4.624;2022-09-25T00:36:17;102424.03;;;7.76;100.00
35151;BME280;55720;51.972;4.624;2022-09-25T00:38:42;102422.38;;;7.75;100.00
35151;BME280;55720;51.972;4.624;2022-09-25T00:41:07;102433.06;;;7.77;100.00
35151;BME280;55720;51.972;4.624;2022-09-25T00:45:58;102448.34;;;7.83;100.00
35151;BME280;55720;51.972;4.624;2022-09-25T00:48:24;102456.03;;;7.81;100.00
35151;BME280;55720;51.972;4.624;2022-09-25T00:50:53;102454.66;;;7.83;100.00
35151;BME280;55720;51.972;4.624;2022-09-25T00:53:20;102455.47;;;7.79;100.00
35151;BME280;55720;51.972;4.624;2022-09-25T00:55:46;102462.31;;;7.76;100.00
35151;BME280;55720;51.972;4.624;2022-09-25T00:58:12;102463.38;;;7.75;100.00
35151;BME280;55720;51.972;4.624;2022-09-25T01:00:38;102458.19;;;7.69;100.00
35151;BME280;55720;51.972;4.624;2022-09-25T01:03:04;102465.59;;;7.68;100.00
35151;BME280;55720;51.972;4.624;2022-09-25T01:05:31;102467.50;;;7.68;100.00
35151;BME280;55720;51.972;4.624;2022-09-25T01:07:58;102474.34;;;7.65;100.00
35151;BME280;55720;51.972;4.624;2022-09-25T01:10:25;102475.44;;;7.59;100.00
35151;BME280;55720;51.972;4.624;2022-09-25T01:12:51;102476.78;;;7.52;100.00
35151;BME280;55720;51.972;4.624;2022-09-25T01:15:20;102474.03;;;7.47;100.00
35151;BME280;55720;51.972;4.624;2022-09-25T01:22:55;102475.13;;;7.40;100.00
35151;BME280;55720;51.972;4.624;2022-09-25T01:30:39;102472.38;;;7.25;100.00
35151;BME280;55720;51.972;4.624;2022-09-25T01:33:10;102476.72;;;7.16;100.00
35151;BME280;55720;51.972;4.624;2022-09-25T01:38:34;102490.38;;;7.11;100.00
35151;BME280;55720;51.972;4.624;2022-09-25T01:41:16;102502.94;;;7.17;100.00
35151;BME280;55720;51.972;4.624;2022-09-25T01:43:48;102470.44;;;7.16;100.00
35151;BME280;55720;51.972;4.624;2022-09-25T01:46:15;102510.03;;;7.08;100.00
35151;BME280;55720;51.972;4.624;2022-09-25T01:48:42;102507.03;;;7.05;100.00
35151;BME280;55720;51.972;4.624;2022-09-25T01:51:12;102503.72;;;6.98;100.00
35151;BME280;55720;51.972;4.624;2022-09-25T01:53:47;102515.75;;;7.02;100.00
35151;BME280;55720;51.972;4.624;2022-09-25T01:58:58;102521.72;;;6.93;100.00
35151;BME280;55720;51.972;4.624;2022-09-25T02:01:26;102524.44;;;6.99;100.00
35151;BME280;55720;51.972;4.624;2022-09-25T02:03:57;102529.38;;;6.97;100.00
35151;BME280;55720;51.972;4.624;2022-09-25T02:06:24;102526.69;;;7.02;100.00
35151;BME280;55720;51.972;4.624;2022-09-25T02:11:42;102507.31;;;7.08;100.00
35151;BME280;55720;51.972;4.624;2022-09-25T02:14:19;102524.25;;;7.15;100.00
35151;BME280;55720;51.972;4.624;2022-09-25T02:16:46;102507.88;;;7.25;100.00
35151;BME280;55720;51.972;4.624;2022-09-25T02:19:13;102525.94;;;7.36;100.00
35151;BME280;55720;51.972;4.624;2022-09-25T02:22:09;102527.88;;;7.46;100.00
35151;BME280;55720;51.972;4.624;2022-09-25T02:27:05;102525.16;;;7.61;100.00
35151;BME280;55720;51.972;4.624;2022-09-25T02:29:30;102524.91;;;7.68;100.00
35151;BME280;55720;51.972;4.624;2022-09-25T02:32:03;102529.31;;;7.74;100.00
35151;BME280;55720;51.972;4.624;2022-09-25T02:34:30;102513.69;;;7.79;100.00
35151;BME280;55720;51.972;4.624;2022-09-25T02:36:55;102521.63;;;7.76;100.00
35151;BME280;55720;51.972;4.624;2022-09-25T02:39:21;102520.81;;;7.75;100.00
35151;BME280;55720;51.972;4.624;2022-09-25T02:47:02;102530.09;;;7.64;100.00
35151;BME280;55720;51.972;4.624;2022-09-25T02:49:46;102529.28;;;7.59;100.00
35151;BME280;55720;51.972;4.624;2022-09-25T02:54:43;102528.44;;;7.63;100.00
35151;BME280;55720;51.972;4.624;2022-09-25T02:57:12;102532.56;;;7.71;100.00
35151;BME280;55720;51.972;4.624;2022-09-25T02:59:41;102530.94;;;7.80;100.00
35151;BME280;55720;51.972;4.624;2022-09-25T03:02:09;102535.31;;;7.91;100.00
35151;BME280;55720;51.972;4.624;2022-09-25T03:04:35;102537.22;;;8.06;100.00
35151;BME280;55720;51.972;4.624;2022-09-25T03:07:03;102539.13;;;8.20;100.00
35151;BME280;55720;51.972;4.624;2022-09-25T03:09:28;102538.59;;;8.33;100.00
35151;BME280;55720;51.972;4.624;2022-09-25T03:11:55;102544.88;;;8.44;100.00
35151;BME280;55720;51.972;4.624;2022-09-25T03:14:21;102535.81;;;8.54;100.00
35151;BME280;55720;51.972;4.624;2022-09-25T03:16:54;102504.59;;;8.60;100.00
35151;BME280;55720;51.972;4.624;2022-09-25T03:19:20;102525.94;;;8.68;100.00
35151;BME280;55720;51.972;4.624;2022-09-25T03:21:46;102542.59;;;8.76;100.00
35151;BME280;55720;51.972;4.624;2022-09-25T03:24:12;102536.03;;;8.82;100.00
35151;BME280;55720;51.972;4.624;2022-09-25T03:26:37;102533.81;;;8.84;100.00
35151;BME280;55720;51.972;4.624;2022-09-25T03:29:03;102506.16;;;8.86;100.00
35151;BME280;55720;51.972;4.624;2022-09-25T03:31:29;102363.44;;;8.87;100.00
35151;BME280;55720;51.972;4.624;2022-09-25T03:33:55;102416.78;;;9.00;100.00
35151;BME280;55720;51.972;4.624;2022-09-25T03:36:21;102560.81;;;9.16;100.00
35151;BME280;55720;51.972;4.624;2022-09-25T03:38:47;102590.38;;;9.29;100.00
35151;BME280;55720;51.972;4.624;2022-09-25T03:41:15;102571.69;;;9.36;100.00
35151;BME280;55720;51.972;4.624;2022-09-25T03:43:41;102544.78;;;9.44;100.00
35151;BME280;55720;51.972;4.624;2022-09-25T03:46:08;102540.88;;;9.50;100.00
35151;BME280;55720;51.972;4.624;2022-09-25T03:48:34;102532.91;;;9.53;100.00
35151;BME280;55720;51.972;4.624;2022-09-25T03:51:00;102531.53;;;9.56;100.00
35151;BME280;55720;51.972;4.624;2022-09-25T03:53:26;102531.25;;;9.57;100.00
35151;BME280;55720;51.972;4.624;2022-09-25T03:55:52;102526.59;;;9.58;100.00
35151;BME280;55720;51.972;4.624;2022-09-25T03:58:17;102532.41;;;9.51;100.00
35151;BME280;55720;51.972;4.624;2022-09-25T04:00:45;102544.22;;;9.42;100.00
35151;BME280;55720;51.972;4.624;2022-09-25T04:03:11;102528.41;;;9.28;100.00
35151;BME280;55720;51.972;4.624;2022-09-25T04:05:36;102540.53;;;9.17;100.00
35151;BME280;55720;51.972;4.624;2022-09-25T04:08:03;102553.75;;;9.00;100.00
35151;BME280;55720;51.972;4.624;2022-09-25T04:10:28;102547.25;;;8.86;100.00
35151;BME280;55720;51.972;4.624;2022-09-25T04:12:54;102551.91;;;8.75;100.00
35151;BME280;55720;51.972;4.624;2022-09-25T04:15:20;102553.84;;;8.70;100.00
35151;BME280;55720;51.972;4.624;2022-09-25T04:17:47;102562.06;;;8.65;100.00
35151;BME280;55720;51.972;4.624;2022-09-25T04:20:12;102559.88;;;8.62;100.00
35151;BME280;55720;51.972;4.624;2022-09-25T04:22:37;102562.09;;;8.55;100.00
35151;BME280;55720;51.972;4.624;2022-09-25T04:25:03;102567.84;;;8.58;100.00
35151;BME280;55720;51.972;4.624;2022-09-25T04:27:28;102577.44;;;8.61;100.00
35151;BME280;55720;51.972;4.624;2022-09-25T04:29:53;102566.75;;;8.54;100.00
35151;BME280;55720;51.972;4.624;2022-09-25T04:32:18;102567.03;;;8.48;100.00
35151;BME280;55720;51.972;4.624;2022-09-25T04:35:03;102561.59;;;8.37;100.00
35151;BME280;55720;51.972;4.624;2022-09-25T04:37:29;102564.31;;;8.32;100.00
35151;BME280;55720;51.972;4.624;2022-09-25T04:39:54;102565.13;;;8.23;100.00
35151;BME280;55720;51.972;4.624;2022-09-25T04:42:20;102562.94;;;8.15;100.00
35151;BME280;55720;51.972;4.624;2022-09-25T04:44:57;102559.38;;;8.09;100.00
35151;BME280;55720;51.972;4.624;2022-09-25T04:47:23;102568.94;;;7.97;100.00
35151;BME280;55720;51.972;4.624;2022-09-25T04:49:49;102567.88;;;7.87;100.00
35151;BME280;55720;51.972;4.624;2022-09-25T04:52:14;102564.00;;;7.78;100.00
35151;BME280;55720;51.972;4.624;2022-09-25T04:54:40;102573.31;;;7.72;100.00
35151;BME280;55720;51.972;4.624;2022-09-25T04:57:06;102572.47;;;7.72;100.00
35151;BME280;55720;51.972;4.624;2022-09-25T04:59:31;102581.47;;;7.67;100.00
35151;BME280;55720;51.972;4.624;2022-09-25T05:01:57;102577.66;;;7.68;100.00
35151;BME280;55720;51.972;4.624;2022-09-25T05:04:22;102575.75;;;7.69;100.00
35151;BME280;55720;51.972;4.624;2022-09-25T05:06:47;102573.28;;;7.67;100.00
35151;BME280;55720;51.972;4.624;2022-09-25T05:09:13;102583.97;;;7.69;100.00
35151;BME280;55720;51.972;4.624;2022-09-25T05:11:38;102574.97;;;7.73;100.00
35151;BME280;55720;51.972;4.624;2022-09-25T05:14:03;102583.41;;;7.72;100.00
35151;BME280;55720;51.972;4.624;2022-09-25T05:16:28;102579.56;;;7.68;100.00
35151;BME280;55720;51.972;4.624;2022-09-25T05:18:55;102574.94;;;7.68;100.00
35151;BME280;55720;51.972;4.624;2022-09-25T05:21:20;102578.25;;;7.70;100.00
35151;BME280;55720;51.972;4.624;2022-09-25T05:23:45;102572.22;;;7.78;100.00
35151;BME280;55720;51.972;4.624;2022-09-25T05:26:11;102568.13;;;7.91;100.00
35151;BME280;55720;51.972;4.624;2022-09-25T05:28:36;102560.75;;;8.02;100.00
35151;BME280;55720;51.972;4.624;2022-09-25T05:31:02;102566.50;;;8.10;100.00
35151;BME280;55720;51.972;4.624;2022-09-25T05:33:27;102554.72;;;8.15;100.00
35151;BME280;55720;51.972;4.624;2022-09-25T05:35:53;102552.00;;;8.15;100.00
35151;BME280;55720;51.972;4.624;2022-09-25T05:38:18;102545.44;;;8.16;100.00
35151;BME280;55720;51.972;4.624;2022-09-25T05:40:43;102545.97;;;8.18;100.00
35151;BME280;55720;51.972;4.624;2022-09-25T05:43:09;102541.84;;;8.25;100.00
35151;BME280;55720;51.972;4.624;2022-09-25T05:45:36;102539.69;;;8.32;100.00
35151;BME280;55720;51.972;4.624;2022-09-25T05:48:06;102535.59;;;8.35;100.00
35151;BME280;55720;51.972;4.624;2022-09-25T05:50:31;102529.56;;;8.33;100.00
35151;BME280;55720;51.972;4.624;2022-09-25T05:52:57;102529.84;;;8.31;100.00
35151;BME280;55720;51.972;4.624;2022-09-25T05:55:23;102488.25;;;8.29;100.00
35151;BME280;55720;51.972;4.624;2022-09-25T05:57:48;102540.50;;;8.33;100.00
35151;BME280;55720;51.972;4.624;2022-09-25T06:00:13;102543.81;;;8.35;100.00
35151;BME280;55720;51.972;4.624;2022-09-25T06:02:40;102528.47;;;8.39;100.00
35151;BME280;55720;51.972;4.624;2022-09-25T06:05:05;102530.38;;;8.49;100.00
35151;BME280;55720;51.972;4.624;2022-09-25T06:07:31;102534.97;;;8.63;100.00
35151;BME280;55720;51.972;4.624;2022-09-25T06:09:56;102541.75;;;8.86;100.00
35151;BME280;55720;51.972;4.624;2022-09-25T06:12:21;102535.06;;;9.12;100.00
35151;BME280;55720;51.972;4.624;2022-09-25T06:14:48;102469.69;;;9.39;100.00
35151;BME280;55720;51.972;4.624;2022-09-25T06:17:14;102512.78;;;9.68;100.00
35151;BME280;55720;51.972;4.624;2022-09-25T06:19:39;102512.56;;;9.98;100.00
35151;BME280;55720;51.972;4.624;2022-09-25T06:22:04;102520.59;;;10.23;100.00
35151;BME280;55720;51.972;4.624;2022-09-25T06:24:29;102517.63;;;10.44;100.00
35151;BME280;55720;51.972;4.624;2022-09-25T06:26:54;102520.16;;;10.64;100.00
35151;BME280;55720;51.972;4.624;2022-09-25T06:29:20;102518.34;;;10.78;100.00
35151;BME280;55720;51.972;4.624;2022-09-25T06:31:45;102531.78;;;10.79;100.00
35151;BME280;55720;51.972;4.624;2022-09-25T06:34:10;102533.91;;;10.88;100.00
35151;BME280;55720;51.972;4.624;2022-09-25T06:36:36;102534.25;;;10.81;100.00
35151;BME280;55720;51.972;4.624;2022-09-25T06:39:02;102526.28;;;10.79;100.00
35151;BME280;55720;51.972;4.624;2022-09-25T06:41:27;102527.72;;;10.77;100.00
35151;BME280;55720;51.972;4.624;2022-09-25T06:43:53;102552.91;;;10.84;100.00
35151;BME280;55720;51.972;4.624;2022-09-25T06:46:19;102569.44;;;10.79;100.00
35151;BME280;55720;51.972;4.624;2022-09-25T06:48:51;102574.41;;;11.01;100.00
35151;BME280;55720;51.972;4.624;2022-09-25T06:51:18;102575.31;;;11.15;100.00
35151;BME280;55720;51.972;4.624;2022-09-25T06:53:43;102588.97;;;11.25;100.00
35151;BME280;55720;51.972;4.624;2022-09-25T06:56:08;102594.34;;;11.35;100.00
35151;BME280;55720;51.972;4.624;2022-09-25T06:58:34;102582.66;;;11.43;100.00
35151;BME280;55720;51.972;4.624;2022-09-25T07:01:00;102586.38;;;11.52;100.00
35151;BME280;55720;51.972;4.624;2022-09-25T07:03:25;102588.16;;;11.62;100.00
35151;BME280;55720;51.972;4.624;2022-09-25T07:06:09;102591.28;;;11.79;100.00
35151;BME280;55720;51.972;4.624;2022-09-25T07:08:35;102596.69;;;11.84;100.00
35151;BME280;55720;51.972;4.624;2022-09-25T07:11:00;102602.63;;;12.10;100.00
35151;BME280;55720;51.972;4.624;2022-09-25T07:13:29;102608.50;;;12.22;100.00
35151;BME280;55720;51.972;4.624;2022-09-25T07:15:59;102604.53;;;12.28;100.00
35151;BME280;55720;51.972;4.624;2022-09-25T07:18:25;102617.44;;;12.46;100.00
35151;BME280;55720;51.972;4.624;2022-09-25T07:20:51;102625.94;;;12.63;100.00
35151;BME280;55720;51.972;4.624;2022-09-25T07:23:17;102633.50;;;12.58;100.00
35151;BME280;55720;51.972;4.624;2022-09-25T07:25:43;102659.44;;;12.70;100.00
35151;BME280;55720;51.972;4.624;2022-09-25T07:28:09;102683.94;;;12.72;100.00
35151;BME280;55720;51.972;4.624;2022-09-25T07:30:40;102689.81;;;12.84;100.00
35151;BME280;55720;51.972;4.624;2022-09-25T07:33:06;102710.53;;;12.95;100.00
35151;BME280;55720;51.972;4.624;2022-09-25T07:35:32;102713.78;;;13.16;100.00
35151;BME280;55720;51.972;4.624;2022-09-25T07:37:58;102739.88;;;13.23;100.00
35151;BME280;55720;51.972;4.624;2022-09-25T07:40:23;102751.13;;;13.08;100.00
35151;BME280;55720;51.972;4.624;2022-09-25T07:42:51;102762.09;;;13.13;100.00
35151;BME280;55720;51.972;4.624;2022-09-25T07:45:16;102782.41;;;12.85;100.00
35151;BME280;55720;51.972;4.624;2022-09-25T07:47:42;102778.31;;;12.82;100.00
35151;BME280;55720;51.972;4.624;2022-09-25T07:50:07;102760.75;;;13.11;100.00
35151;BME280;55720;51.972;4.624;2022-09-25T07:52:32;102713.88;;;13.11;100.00
35151;BME280;55720;51.972;4.624;2022-09-25T07:54:58;102602.03;;;13.18;100.00
35151;BME280;55720;51.972;4.624;2022-09-25T07:57:23;102449.16;;;13.33;100.00
35151;BME280;55720;51.972;4.624;2022-09-25T07:59:48;102334.09;;;13.56;100.00
35151;BME280;55720;51.972;4.624;2022-09-25T08:02:13;102247.81;;;13.81;100.00
35151;BME280;55720;51.972;4.624;2022-09-25T08:04:39;102183.72;;;14.18;100.00
35151;BME280;55720;51.972;4.624;2022-09-25T08:07:04;102136.16;;;15.02;100.00
35151;BME280;55720;51.972;4.624;2022-09-25T08:09:29;102059.31;;;15.87;100.00
35151;BME280;55720;51.972;4.624;2022-09-25T08:11:54;102002.31;;;16.76;100.00
35151;BME280;55720;51.972;4.624;2022-09-25T08:14:20;101950.47;;;17.29;100.00
35151;BME280;55720;51.972;4.624;2022-09-25T08:16:46;101777.28;;;18.43;100.00
35151;BME280;55720;51.972;4.624;2022-09-25T08:19:12;101532.09;;;19.84;100.00
35151;BME280;55720;51.972;4.624;2022-09-25T08:21:38;101311.00;;;19.70;100.00
35151;BME280;55720;51.972;4.624;2022-09-25T08:24:03;101298.44;;;19.46;100.00
35151;BME280;55720;51.972;4.624;2022-09-25T08:26:28;101300.41;;;18.82;100.00
35151;BME280;55720;51.972;4.624;2022-09-25T08:28:54;101333.16;;;17.72;100.00
35151;BME280;55720;51.972;4.624;2022-09-25T08:31:20;101352.31;;;17.38;100.00
35151;BME280;55720;51.972;4.624;2022-09-25T08:33:45;101346.09;;;17.26;100.00
35151;BME280;55720;51.972;4.624;2022-09-25T08:36:11;101347.03;;;17.52;100.00
35151;BME280;55720;51.972;4.624;2022-09-25T08:38:36;101334.97;;;18.81;100.00
35151;BME280;55720;51.972;4.624;2022-09-25T08:41:03;101314.16;;;20.59;100.00
35151;BME280;55720;51.972;4.624;2022-09-25T08:43:31;101306.84;;;21.06;100.00
35151;BME280;55720;51.972;4.624;2022-09-25T08:45:59;101328.22;;;21.81;100.00
35151;BME280;55720;51.972;4.624;2022-09-25T08:48:53;101383.66;;;21.47;100.00
35151;BME280;55720;51.972;4.624;2022-09-25T08:54:02;101599.28;;;20.35;100.00
35151;BME280;55720;51.972;4.624;2022-09-25T08:56:28;101616.28;;;20.27;100.00
35151;BME280;55720;51.972;4.624;2022-09-25T08:58:55;101620.34;;;19.73;100.00
35151;BME280;55720;51.972;4.624;2022-09-25T09:01:25;101622.81;;;19.78;100.00
35151;BME280;55720;51.972;4.624;2022-09-25T09:06:26;101631.84;;;19.23;100.00
35151;BME280;55720;51.972;4.624;2022-09-25T09:08:57;101659.19;;;19.17;100.00
35151;BME280;55720;51.972;4.624;2022-09-25T09:11:30;101657.25;;;19.21;100.00
35151;BME280;55720;51.972;4.624;2022-09-25T09:14:00;101672.34;;;18.97;100.00
35151;BME280;55720;51.972;4.624;2022-09-25T09:18:59;101682.84;;;18.65;100.00
35151;BME280;55720;51.972;4.624;2022-09-25T09:21:36;101691.53;;;18.83;100.00
35151;BME280;55720;51.972;4.624;2022-09-25T09:24:15;101691.16;;;18.85;100.00
35151;BME280;55720;51.972;4.624;2022-09-25T09:42:41;101606.41;;;15.29;100.00
35151;BME280;55720;51.972;4.624;2022-09-25T09:47:45;101531.59;;;15.13;100.00
35151;BME280;55720;51.972;4.624;2022-09-25T09:52:40;101524.91;;;15.51;100.00
35151;BME280;55720;51.972;4.624;2022-09-25T09:55:18;101513.56;;;15.96;100.00
35151;BME280;55720;51.972;4.624;2022-09-25T09:57:49;101513.97;;;16.38;100.00
35151;BME280;55720;51.972;4.624;2022-09-25T10:00:16;101507.75;;;16.72;100.00
35151;BME280;55720;51.972;4.624;2022-09-25T10:05:27;101507.06;;;17.26;100.00
35151;BME280;55720;51.972;4.624;2022-09-25T10:07:54;101524.00;;;17.36;100.00
35151;BME280;55720;51.972;4.624;2022-09-25T10:10:20;101551.44;;;17.41;100.00
35151;BME280;55720;51.972;4.624;2022-09-25T10:12:50;101572.84;;;17.72;100.00
35151;BME280;55720;51.972;4.624;2022-09-25T10:15:20;101621.63;;;18.08;100.00
35151;BME280;55720;51.972;4.624;2022-09-25T10:17:48;101637.09;;;18.44;100.00
35151;BME280;55720;51.972;4.624;2022-09-25T10:20:14;101682.06;;;18.11;100.00
35151;BME280;55720;51.972;4.624;2022-09-25T10:22:43;101690.75;;;18.09;100.00
35151;BME280;55720;51.972;4.624;2022-09-25T10:25:09;101701.16;;;18.32;100.00
35151;BME280;55720;51.972;4.624;2022-09-25T10:27:41;101707.75;;;18.43;100.00
35151;BME280;55720;51.972;4.624;2022-09-25T10:30:22;101727.34;;;18.31;100.00
35151;BME280;55720;51.972;4.624;2022-09-25T10:35:17;101728.75;;;18.75;100.00
35151;BME280;55720;51.972;4.624;2022-09-25T10:37:43;101749.16;;;18.63;100.00
35151;BME280;55720;51.972;4.624;2022-09-25T10:45:35;101743.00;;;18.54;100.00
35151;BME280;55720;51.972;4.624;2022-09-25T10:51:06;101747.06;;;18.95;100.00
35151;BME280;55720;51.972;4.624;2022-09-25T10:53:32;101739.94;;;18.79;100.00
35151;BME280;55720;51.972;4.624;2022-09-25T10:56:07;101735.53;;;18.78;100.00
35151;BME280;55720;51.972;4.624;2022-09-25T11:01:01;101769.84;;;17.96;100.00
35151;BME280;55720;51.972;4.624;2022-09-25T11:03:34;101777.19;;;17.14;100.00
35151;BME280;55720;51.972;4.624;2022-09-25T11:06:07;101764.19;;;16.90;100.00
35151;BME280;55720;51.972;4.624;2022-09-25T11:08:35;101741.78;;;16.43;100.00
35151;BME280;55720;51.972;4.624;2022-09-25T11:11:03;101691.31;;;15.73;100.00
35151;BME280;55720;51.972;4.624;2022-09-25T11:13:29;101597.41;;;15.32;100.00
35151;BME280;55720;51.972;4.624;2022-09-25T11:16:01;101497.00;;;15.32;100.00
35151;BME280;55720;51.972;4.624;2022-09-25T11:18:32;101468.03;;;15.41;100.00
35151;BME280;55720;51.972;4.624;2022-09-25T11:21:02;101448.06;;;15.60;100.00
35151;BME280;55720;51.972;4.624;2022-09-25T11:31:24;101403.19;;;16.72;100.00
35151;BME280;55720;51.972;4.624;2022-09-25T11:36:42;101405.16;;;16.72;100.00
35151;BME280;55720;51.972;4.624;2022-09-25T11:42:27;101416.59;;;16.39;100.00
35151;BME280;55720;51.972;4.624;2022-09-25T11:44:58;101408.47;;;16.31;100.00
35151;BME280;55720;51.972;4.624;2022-09-25T11:47:28;101406.78;;;16.42;100.00
35151;BME280;55720;51.972;4.624;2022-09-25T11:49:57;101412.88;;;16.63;100.00
35151;BME280;55720;51.972;4.624;2022-09-25T11:59:54;101477.25;;;17.22;100.00
35151;BME280;55720;51.972;4.624;2022-09-25T12:30:04;101659.31;;;18.25;100.00
35151;BME280;55720;51.972;4.624;2022-09-25T12:35:04;101674.94;;;18.67;100.00
35151;BME280;55720;51.972;4.624;2022-09-25T12:37:41;101685.47;;;19.20;100.00
35151;BME280;55720;51.972;4.624;2022-09-25T12:43:05;101691.16;;;19.27;100.00
35151;BME280;55720;51.972;4.624;2022-09-25T12:45:43;101680.00;;;19.04;100.00
35151;BME280;55720;51.972;4.624;2022-09-25T12:48:12;101685.78;;;19.37;100.00
35151;BME280;55720;51.972;4.624;2022-09-25T12:53:21;101670.31;;;19.17;100.00
35151;BME280;55720;51.972;4.624;2022-09-25T12:55:49;101667.38;;;19.52;100.00
35151;BME280;55720;51.972;4.624;2022-09-25T12:58:23;101665.44;;;20.08;100.00
35151;BME280;55720;51.972;4.624;2022-09-25T13:01:52;101663.25;;;20.51;100.00
35151;BME280;55720;51.972;4.624;2022-09-25T13:04:29;101650.63;;;20.31;100.00
35151;BME280;55720;51.972;4.624;2022-09-25T13:06:50;101656.56;;;19.73;100.00
35151;BME280;55720;51.972;4.624;2022-09-25T13:09:19;101678.97;;;19.12;100.00
35151;BME280;55720;51.972;4.624;2022-09-25T13:11:49;101671.56;;;19.20;100.00
35151;BME280;55720;51.972;4.624;2022-09-25T13:14:25;101655.63;;;19.65;100.00
35151;BME280;55720;51.972;4.624;2022-09-25T13:16:51;101656.34;;;19.85;100.00
35151;BME280;55720;51.972;4.624;2022-09-25T13:21:49;101668.63;;;19.81;100.00
35151;BME280;55720;51.972;4.624;2022-09-25T13:24:14;101671.81;;;19.56;100.00
35151;BME280;55720;51.972;4.624;2022-09-25T13:26:51;101689.47;;;18.99;100.00
35151;BME280;55720;51.972;4.624;2022-09-25T13:29:26;101687.22;;;19.28;100.00
35151;BME280;55720;51.972;4.624;2022-09-25T13:34:37;101683.81;;;18.54;100.00
35151;BME280;55720;51.972;4.624;2022-09-25T13:37:03;101688.19;;;18.55;100.00
35151;BME280;55720;51.972;4.624;2022-09-25T13:39:30;101691.41;;;18.95;100.00
35151;BME280;55720;51.972;4.624;2022-09-25T13:42:19;101675.59;;;18.61;100.00
35151;BME280;55720;51.972;4.624;2022-09-25T13:49:54;101668.81;;;19.42;100.00
35151;BME280;55720;51.972;4.624;2022-09-25T14:00:40;101652.28;;;18.50;100.00
35151;BME280;55720;51.972;4.624;2022-09-25T14:06:02;101662.53;;;18.07;100.00
35151;BME280;55720;51.972;4.624;2022-09-25T14:08:29;101658.28;;;17.79;100.00
35151;BME280;55720;51.972;4.624;2022-09-25T14:10:55;101661.53;;;17.18;100.00
35151;BME280;55720;51.972;4.624;2022-09-25T14:13:21;101670.97;;;17.01;100.00
35151;BME280;55720;51.972;4.624;2022-09-25T14:15:49;101652.47;;;17.68;100.00
35151;BME280;55720;51.972;4.624;2022-09-25T14:18:17;101651.31;;;18.04;100.00
35151;BME280;55720;51.972;4.624;2022-09-25T14:20:44;101643.78;;;18.24;100.00
35151;BME280;55720;51.972;4.624;2022-09-25T14:25:37;101637.69;;;17.99;100.00
35151;BME280;55720;51.972;4.624;2022-09-25T14:33:20;101644.31;;;17.75;100.00
35151;BME280;55720;51.972;4.624;2022-09-25T14:38:28;101650.91;;;18.59;100.00
35151;BME280;55720;51.972;4.624;2022-09-25T14:41:04;101630.94;;;18.35;100.00
35151;BME280;55720;51.972;4.624;2022-09-25T14:46:18;101648.16;;;17.55;100.00
35151;BME280;55720;51.972;4.624;2022-09-25T14:48:49;101655.06;;;17.45;100.00
35151;BME280;55720;51.972;4.624;2022-09-25T14:51:19;101655.53;;;17.63;100.00
35151;BME280;55720;51.972;4.624;2022-09-25T14:53:56;101653.16;;;17.81;100.00
35151;BME280;55720;51.972;4.624;2022-09-25T14:56:22;101647.38;;;18.05;100.00
35151;BME280;55720;51.972;4.624;2022-09-25T14:58:50;101639.84;;;18.25;100.00
35151;BME280;55720;51.972;4.624;2022-09-25T15:01:27;101632.91;;;18.15;100.00
35151;BME280;55720;51.972;4.624;2022-09-25T15:03:55;101629.91;;;17.54;100.00
35151;BME280;55720;51.972;4.624;2022-09-25T15:06:26;101646.25;;;16.81;100.00
35151;BME280;55720;51.972;4.624;2022-09-25T15:08:52;101644.34;;;16.69;100.00
35151;BME280;55720;51.972;4.624;2022-09-25T15:11:18;101649.25;;;16.60;100.00
35151;BME280;55720;51.972;4.624;2022-09-25T15:13:44;101650.34;;;16.71;100.00
35151;BME280;55720;51.972;4.624;2022-09-25T15:16:19;101645.16;;;16.69;100.00
35151;BME280;55720;51.972;4.624;2022-09-25T15:19:14;101652.13;;;16.23;100.00
35151;BME280;55720;51.972;4.624;2022-09-25T15:21:41;101646.41;;;15.92;100.00
35151;BME280;55720;51.972;4.624;2022-09-25T15:24:16;101644.38;;;15.77;100.00
35151;BME280;55720;51.972;4.624;2022-09-25T15:26:44;101651.31;;;15.59;100.00
35151;BME280;55720;51.972;4.624;2022-09-25T15:29:17;101632.28;;;15.57;100.00
35151;BME280;55720;51.972;4.624;2022-09-25T15:31:44;101627.53;;;15.58;100.00
35151;BME280;55720;51.972;4.624;2022-09-25T15:34:18;101611.00;;;15.73;100.00
35151;BME280;55720;51.972;4.624;2022-09-25T15:36:44;101603.41;;;15.70;100.00
35151;BME280;55720;51.972;4.624;2022-09-25T15:39:13;101596.13;;;15.78;100.00